Ana Sayfa
METAR-TAF:

METAR-TAF

Havaalanları :

Naval Air Station Whiting Field South

Milton, Florida, Amerika Birleşik Devletleri

Enlem: 30-41-50N, Boylam: 087-01-12W, yükseklik: 54 m

Güncel hava durumu gözlemi

Rapor saat 18:56 UTC de 42 dakika önce yapıldı.
Rüzgar değişken yönden 3 kt
Sıcaklık 35°C
Nem 47%
Basınç 1014 hPa
Görüş mesafesi: 16.1 km
4800 ft yükseklikte parçalı bulutlu
25000 ft yükseklikte parçalı bulutlu

METAR: KNDZ 251856Z VRB03KT 10SM SCT048 SCT250 35/22 A2994 RMK AO2 SLP123 T03500222 $

Saat: 14:38 (19:38 UTC)


TAF: eksik

4.000'den fazla havaalanı için hava durumu gözlemleri ve tahminleri (METAR ve TAF raporları).

Kullanılabilir istasyonlar harita üzerinde sarı ve kırmızı noktalarla gösterilir.

İstasyonun adını görmek için fareyi noktanın üzerinde gezdirin.

Sonrasında hava gözlem ve tahminlerini görmek için tıklayın.

Haritayı değiştirmek için: yaklaştırmak için siyah artı işaretli yeşil düğmeye ve uzaklaştırmak için de eksi işaretli düğmeye hızla tıklayın; bitişik haritalar için yeşil okları kullanın.


METAR-TAF: